Time,TemperatureF,DewpointF,PressureIn,WindDirection,WindDirectionDegrees,WindSpeedMPH,WindSpeedGustMPH,Humidity,HourlyPrecipIn,Conditions,Clouds,dailyrainin,SolarRadiationWatts/m^2,SoftwareType,DateUTC
2013-09-30 00:02:00,54.3,48.6,29.87,SSE,166,0.0,0.0,81,0.00,CLR,,0.00,0.0,WeatherDisplay:10.37,2013-09-30 05:02:00,
2013-09-30 00:07:00,54.2,48.5,29.87,SSE,166,2.0,2.0,81,0.00,CLR,,0.00,0.0,WeatherDisplay:10.37,2013-09-30 05:07:00,
2013-09-30 00:12:00,54.9,49.2,29.89,South,172,0.0,0.0,81,0.00,CLR,,0.00,0.0,WeatherDisplay:10.37,2013-09-30 05:12:00,
2013-09-30 00:17:00,54.9,49.2,29.89,South,172,0.0,0.0,81,0.00,CLR,,0.00,0.0,WeatherDisplay:10.37,2013-09-30 05:17:00,
2013-09-30 00:22:00,54.9,49.2,29.89,South,172,0.0,0.0,81,0.00,CLR,,0.00,0.0,WeatherDisplay:10.37,2013-09-30 05:22:00,
2013-09-30 00:27:00,53.6,48.2,29.87,SSE,161,1.0,1.0,82,0.00,CLR,,0.00,0.0,WeatherDisplay:10.37,2013-09-30 05:27:00,
2013-09-30 00:32:00,54.9,49.2,29.89,South,172,0.0,0.0,81,0.00,CLR,,0.00,0.0,WeatherDisplay:10.37,2013-09-30 05:32:00,
2013-09-30 00:37:00,54.9,49.2,29.89,South,172,0.0,0.0,81,0.00,CLR,,0.00,0.0,WeatherDisplay:10.37,2013-09-30 05:37:00,
2013-09-30 00:42:00,54.9,49.2,29.89,South,172,0.0,0.0,81,0.00,CLR,,0.00,0.0,WeatherDisplay:10.37,2013-09-30 05:42:00,
2013-09-30 00:47:00,54.9,49.2,29.89,South,172,0.0,0.0,81,0.00,CLR,,0.00,0.0,WeatherDisplay:10.37,2013-09-30 05:47:00,
2013-09-30 00:52:00,54.9,49.2,29.89,South,172,0.0,0.0,81,0.00,CLR,,0.00,0.0,WeatherDisplay:10.37,2013-09-30 05:52:00,
2013-09-30 00:57:00,53.0,48.3,29.85,SSE,165,0.0,0.0,84,0.00,CLR,,0.00,0.0,WeatherDisplay:10.37,2013-09-30 05:57:00,
2013-09-30 01:02:00,52.9,47.9,29.85,SSE,165,1.1,1.1,83,0.00,CLR,,0.00,0.0,WeatherDisplay:10.37,2013-09-30 06:02:00,
2013-09-30 01:07:00,52.7,47.7,29.85,SSE,165,1.0,1.0,83,0.00,CLR,,0.00,0.0,WeatherDisplay:10.37,2013-09-30 06:07:00,
2013-09-30 01:12:00,54.9,49.2,29.89,South,172,0.0,0.0,81,0.00,CLR,,0.00,0.0,WeatherDisplay:10.37,2013-09-30 06:12:00,
2013-09-30 01:17:00,52.5,47.8,29.85,SSE,166,1.1,0.0,84,0.00,CLR,,0.00,0.0,WeatherDisplay:10.37,2013-09-30 06:17:00,
2013-09-30 01:22:00,52.4,47.7,29.85,SE,145,0.0,0.0,84,0.00,CLR,,0.00,0.0,WeatherDisplay:10.37,2013-09-30 06:22:00,
2013-09-30 01:27:00,52.6,47.6,29.85,South,177,0.0,0.0,83,0.00,CLR,,0.00,0.0,WeatherDisplay:10.37,2013-09-30 06:27:00,
2013-09-30 01:32:00,52.6,47.6,29.85,South,177,0.0,0.0,83,0.00,CLR,,0.00,0.0,WeatherDisplay:10.37,2013-09-30 06:32:00,
2013-09-30 01:37:00,52.6,47.6,29.85,South,177,0.0,0.0,83,0.00,CLR,,0.00,0.0,WeatherDisplay:10.37,2013-09-30 06:37:00,
2013-09-30 01:42:00,52.6,47.6,29.85,South,177,0.0,0.0,83,0.00,CLR,,0.00,0.0,WeatherDisplay:10.37,2013-09-30 06:42:00,
2013-09-30 01:47:00,52.6,47.6,29.85,South,177,0.0,0.0,83,0.00,CLR,,0.00,0.0,WeatherDisplay:10.37,2013-09-30 06:47:00,
2013-09-30 01:52:00,51.6,47.5,29.85,South,186,2.3,2.3,86,0.00,CLR,,0.00,0.0,WeatherDisplay:10.37,2013-09-30 06:52:00,
2013-09-30 01:57:00,51.7,47.6,29.85,SE,133,2.3,2.3,86,0.00,CLR,,0.00,0.0,WeatherDisplay:10.37,2013-09-30 06:57:00,
2013-09-30 02:02:00,51.7,47.6,29.85,SE,135,0.0,0.0,86,0.00,CLR,,0.00,0.0,WeatherDisplay:10.37,2013-09-30 07:02:00,
2013-09-30 02:07:00,51.7,47.6,29.85,SE,135,0.0,0.0,86,0.00,CLR,,0.00,0.0,WeatherDisplay:10.37,2013-09-30 07:07:00,
2013-09-30 02:12:00,51.7,47.6,29.85,SE,146,1.1,1.1,86,0.00,CLR,,0.00,0.0,WeatherDisplay:10.37,2013-09-30 07:12:00,
2013-09-30 02:17:00,51.7,47.6,29.85,SE,146,1.1,1.1,86,0.00,CLR,,0.00,0.0,WeatherDisplay:10.37,2013-09-30 07:17:00,
2013-09-30 02:22:00,51.7,47.6,29.85,SE,146,1.1,1.1,86,0.00,CLR,,0.00,0.0,WeatherDisplay:10.37,2013-09-30 07:22:00,
2013-09-30 02:27:00,51.4,47.4,29.84,SSE,166,0.0,0.0,86,0.00,CLR,,0.00,0.0,WeatherDisplay:10.37,2013-09-30 07:27:00,
2013-09-30 02:32:00,51.4,47.7,29.84,South,175,2.3,2.3,87,0.00,CLR,,0.00,0.0,WeatherDisplay:10.37,2013-09-30 07:32:00,
2013-09-30 02:37:00,51.7,47.6,29.85,SE,146,1.1,1.1,86,0.00,CLR,,0.00,0.0,WeatherDisplay:10.37,2013-09-30 07:37:00,
2013-09-30 02:42:00,51.3,47.6,29.84,South,174,1.1,0.0,87,0.00,CLR,,0.00,0.0,WeatherDisplay:10.37,2013-09-30 07:42:00,
2013-09-30 02:47:00,51.7,47.6,29.85,SE,146,1.1,1.1,86,0.00,CLR,,0.00,0.0,WeatherDisplay:10.37,2013-09-30 07:47:00,
2013-09-30 02:52:00,51.1,47.4,29.84,South,174,1.1,0.0,87,0.00,CLR,,0.00,0.0,WeatherDisplay:10.37,2013-09-30 07:52:00,
2013-09-30 02:57:00,51.0,47.6,29.84,South,174,0.0,0.0,88,0.00,CLR,,0.00,0.0,WeatherDisplay:10.37,2013-09-30 07:57:00,
2013-09-30 03:02:00,50.8,47.4,29.84,South,174,0.0,0.0,88,0.00,CLR,,0.00,0.0,WeatherDisplay:10.37,2013-09-30 08:02:00,
2013-09-30 03:07:00,50.6,47.2,29.84,SSE,168,0.0,0.1,88,0.00,CLR,,0.00,0.0,WeatherDisplay:10.37,2013-09-30 08:07:00,
2013-09-30 03:12:00,51.7,47.6,29.85,SE,146,1.1,1.1,86,0.00,CLR,,0.00,0.0,WeatherDisplay:10.37,2013-09-30 08:12:00,
2013-09-30 03:17:00,51.7,47.6,29.85,SE,146,1.1,1.1,86,0.00,CLR,,0.00,0.0,WeatherDisplay:10.37,2013-09-30 08:17:00,
2013-09-30 03:22:00,51.7,47.6,29.85,SE,146,1.1,1.1,86,0.00,CLR,,0.00,0.0,WeatherDisplay:10.37,2013-09-30 08:22:00,
2013-09-30 03:27:00,49.9,46.8,29.83,SSE,168,0.0,0.0,89,0.00,CLR,,0.00,0.0,WeatherDisplay:10.37,2013-09-30 08:27:00,
2013-09-30 03:32:00,49.8,46.7,29.83,SSE,168,0.0,0.0,89,0.00,CLR,,0.00,0.0,WeatherDisplay:10.37,2013-09-30 08:32:00,
2013-09-30 03:37:00,49.7,46.9,29.83,South,176,1.1,1.1,90,0.00,CLR,,0.00,0.0,WeatherDisplay:10.37,2013-09-30 08:37:00,
2013-09-30 03:42:00,49.6,46.8,29.83,South,175,2.3,2.3,90,0.00,CLR,,0.00,0.0,WeatherDisplay:10.37,2013-09-30 08:42:00,
2013-09-30 03:47:00,51.7,47.6,29.85,SE,146,1.1,1.1,86,0.00,CLR,,0.00,0.0,WeatherDisplay:10.37,2013-09-30 08:47:00,
2013-09-30 03:52:00,49.6,46.8,29.83,South,175,0.0,0.0,90,0.00,CLR,,0.00,0.0,WeatherDisplay:10.37,2013-09-30 08:52:00,
2013-09-30 03:58:00,49.6,46.8,29.83,SSE,161,0.0,0.0,90,0.00,CLR,,0.00,0.0,WeatherDisplay:10.37,2013-09-30 08:58:00,
2013-09-30 04:03:00,51.7,47.6,29.85,SE,146,1.1,1.1,86,0.00,CLR,,0.00,0.0,WeatherDisplay:10.37,2013-09-30 09:03:00,
2013-09-30 04:08:00,51.7,47.6,29.85,SE,146,1.1,1.1,86,0.00,CLR,,0.00,0.0,WeatherDisplay:10.37,2013-09-30 09:08:00,
2013-09-30 04:13:00,49.9,47.1,29.82,SE,131,5.0,5.0,90,0.00,CLR,,0.00,0.0,WeatherDisplay:10.37,2013-09-30 09:13:00,
2013-09-30 04:18:00,50.1,47.3,29.82,SSE,165,1.1,0.0,90,0.00,CLR,,0.00,0.0,WeatherDisplay:10.37,2013-09-30 09:18:00,
2013-09-30 04:23:00,50.3,47.2,29.82,SSE,164,1.1,1.1,89,0.00,CLR,,0.00,0.0,WeatherDisplay:10.37,2013-09-30 09:23:00,
2013-09-30 04:28:00,51.7,47.6,29.85,SE,146,1.1,1.1,86,0.00,CLR,,0.00,0.0,WeatherDisplay:10.37,2013-09-30 09:28:00,
2013-09-30 04:33:00,51.7,47.6,29.85,SE,146,1.1,1.1,86,0.00,CLR,,0.00,0.0,WeatherDisplay:10.37,2013-09-30 09:33:00,
2013-09-30 04:38:00,51.7,47.6,29.85,SE,146,1.1,1.1,86,0.00,CLR,,0.00,0.0,WeatherDisplay:10.37,2013-09-30 09:38:00,
2013-09-30 04:43:00,51.7,47.6,29.85,SE,146,1.1,1.1,86,0.00,CLR,,0.00,0.0,WeatherDisplay:10.37,2013-09-30 09:43:00,
2013-09-30 04:48:00,51.7,47.6,29.85,SE,146,1.1,1.1,86,0.00,CLR,,0.00,0.0,WeatherDisplay:10.37,2013-09-30 09:48:00,
2013-09-30 04:53:00,51.7,47.6,29.85,SE,146,1.1,1.1,86,0.00,CLR,,0.00,0.0,WeatherDisplay:10.37,2013-09-30 09:53:00,
2013-09-30 04:58:00,51.7,47.6,29.85,SE,146,1.1,1.1,86,0.00,CLR,,0.00,0.0,WeatherDisplay:10.37,2013-09-30 09:58:00,
2013-09-30 05:03:00,52.0,47.6,29.81,SSE,163,1.1,1.1,85,0.00,CLR,,0.00,0.0,WeatherDisplay:10.37,2013-09-30 10:03:00,
2013-09-30 05:08:00,51.7,47.6,29.85,SE,146,1.1,1.1,86,0.00,CLR,,0.00,0.0,WeatherDisplay:10.37,2013-09-30 10:08:00,
2013-09-30 05:13:00,51.7,47.6,29.85,SE,146,1.1,1.1,86,0.00,CLR,,0.00,0.0,WeatherDisplay:10.37,2013-09-30 10:13:00,
2013-09-30 05:18:00,52.4,47.7,29.80,SSE,148,3.5,3.5,84,0.00,CLR,,0.00,0.0,WeatherDisplay:10.37,2013-09-30 10:18:00,
2013-09-30 05:23:00,52.5,47.8,29.80,SSE,159,4.6,4.6,84,0.00,CLR,,0.00,0.0,WeatherDisplay:10.37,2013-09-30 10:23:00,
2013-09-30 05:28:00,52.6,47.9,29.80,SSW,210,2.0,2.0,84,0.00,CLR,,0.00,0.0,WeatherDisplay:10.37,2013-09-30 10:28:00,
2013-09-30 05:33:00,52.6,47.6,29.79,SSE,151,4.6,4.6,83,0.00,CLR,,0.00,0.0,WeatherDisplay:10.37,2013-09-30 10:33:00,
2013-09-30 05:38:00,51.7,47.6,29.85,SE,146,1.1,1.1,86,0.00,CLR,,0.00,0.0,WeatherDisplay:10.37,2013-09-30 10:38:00,
2013-09-30 05:43:00,51.7,47.6,29.85,SE,146,1.1,1.1,86,0.00,CLR,,0.00,0.0,WeatherDisplay:10.37,2013-09-30 10:43:00,
2013-09-30 05:48:00,53.2,47.8,29.80,West,261,3.5,3.5,82,0.00,CLR,,0.00,0.0,WeatherDisplay:10.37,2013-09-30 10:48:00,
2013-09-30 05:53:00,51.7,47.6,29.85,SE,146,1.1,1.1,86,0.00,CLR,,0.00,0.0,WeatherDisplay:10.37,2013-09-30 10:53:00,
2013-09-30 05:58:00,53.3,47.9,29.79,SSE,157,2.3,2.3,82,0.00,CLR,,0.00,0.0,WeatherDisplay:10.37,2013-09-30 10:58:00,
2013-09-30 06:03:00,51.7,47.6,29.85,SE,146,1.1,1.1,86,0.00,CLR,,0.00,0.0,WeatherDisplay:10.37,2013-09-30 11:03:00,
2013-09-30 06:08:00,53.4,48.0,29.79,SSE,157,3.5,3.5,82,0.00,CLR,,0.00,0.0,WeatherDisplay:10.37,2013-09-30 11:08:00,
2013-09-30 06:13:00,53.3,47.6,29.79,SSW,197,1.0,1.0,81,0.00,CLR,,0.00,0.0,WeatherDisplay:10.37,2013-09-30 11:13:00,
2013-09-30 06:18:00,53.2,47.8,29.78,South,171,5.8,5.8,82,0.00,CLR,,0.00,0.0,WeatherDisplay:10.37,2013-09-30 11:18:00,
2013-09-30 06:23:00,53.1,47.7,29.78,SSE,165,4.6,4.6,82,0.00,CLR,,0.00,0.0,WeatherDisplay:10.37,2013-09-30 11:23:00,
2013-09-30 06:28:00,53.1,47.7,29.78,SSE,159,3.5,3.5,82,0.00,CLR,,0.00,0.0,WeatherDisplay:10.37,2013-09-30 11:28:00,
2013-09-30 06:33:00,51.7,47.6,29.85,SE,146,1.1,1.1,86,0.00,CLR,,0.00,0.0,WeatherDisplay:10.37,2013-09-30 11:33:00,
2013-09-30 06:38:00,51.7,47.6,29.85,SE,146,1.1,1.1,86,0.00,CLR,,0.00,0.0,WeatherDisplay:10.37,2013-09-30 11:38:00,
2013-09-30 06:43:00,53.2,47.5,29.78,SSE,156,3.5,3.5,81,0.00,CLR,,0.00,0.0,WeatherDisplay:10.37,2013-09-30 11:43:00,
2013-09-30 06:48:00,53.1,47.7,29.78,SSE,150,3.5,3.5,82,0.00,CLR,,0.00,0.0,WeatherDisplay:10.37,2013-09-30 11:48:00,
2013-09-30 06:53:00,51.7,47.6,29.85,SE,146,1.1,1.1,86,0.00,CLR,,0.00,0.0,WeatherDisplay:10.37,2013-09-30 11:53:00,
2013-09-30 06:58:00,52.9,47.6,29.78,South,175,1.1,1.7,82,0.00,CLR,,0.00,0.0,WeatherDisplay:10.37,2013-09-30 11:58:00,
2013-09-30 07:03:00,52.9,47.6,29.78,SSE,157,2.3,2.3,82,0.00,CLR,,0.00,0.0,WeatherDisplay:10.37,2013-09-30 12:03:00,
2013-09-30 07:08:00,52.8,47.5,29.78,South,178,3.5,3.5,82,0.00,CLR,,0.00,0.0,WeatherDisplay:10.37,2013-09-30 12:08:00,
2013-09-30 07:13:00,52.9,47.6,29.78,SSE,157,1.1,1.1,82,0.00,CLR,,0.00,0.0,WeatherDisplay:10.37,2013-09-30 12:13:00,
2013-09-30 07:18:00,52.9,47.6,29.78,SSE,157,1.1,1.1,82,0.00,CLR,,0.00,0.0,WeatherDisplay:10.37,2013-09-30 12:18:00,
2013-09-30 07:23:00,52.7,47.4,29.78,SSE,153,6.0,6.0,82,0.00,CLR,,0.00,5.0,WeatherDisplay:10.37,2013-09-30 12:23:00,
2013-09-30 07:28:00,52.9,47.6,29.78,SSE,157,1.1,1.1,82,0.00,CLR,,0.00,0.0,WeatherDisplay:10.37,2013-09-30 12:28:00,
2013-09-30 07:34:00,52.7,47.4,29.77,SE,141,5.8,5.8,82,0.00,CLR,,0.00,9.0,WeatherDisplay:10.37,2013-09-30 12:34:00,
2013-09-30 07:39:00,52.8,47.5,29.77,South,177,5.8,5.8,82,0.00,CLR,,0.00,11.0,WeatherDisplay:10.37,2013-09-30 12:39:00,
2013-09-30 07:44:00,52.9,47.6,29.77,South,173,3.5,3.5,82,0.00,CLR,,0.00,11.0,WeatherDisplay:10.37,2013-09-30 12:44:00,
2013-09-30 07:49:00,52.9,47.6,29.78,SSE,157,1.1,1.1,82,0.00,CLR,,0.00,0.0,WeatherDisplay:10.37,2013-09-30 12:49:00,
2013-09-30 07:54:00,52.9,47.6,29.78,SSE,157,1.1,1.1,82,0.00,CLR,,0.00,0.0,WeatherDisplay:10.37,2013-09-30 12:54:00,
2013-09-30 07:59:00,52.9,47.6,29.78,SSE,157,1.1,1.1,82,0.00,CLR,,0.00,0.0,WeatherDisplay:10.37,2013-09-30 12:59:00,
2013-09-30 08:04:00,53.3,47.9,29.76,SE,143,2.3,2.3,82,0.00,CLR,,0.00,12.0,WeatherDisplay:10.37,2013-09-30 13:04:00,
2013-09-30 08:09:00,52.9,47.6,29.78,SSE,157,1.1,1.1,82,0.00,CLR,,0.00,0.0,WeatherDisplay:10.37,2013-09-30 13:09:00,
2013-09-30 08:14:00,52.9,47.6,29.78,SSE,157,1.1,1.1,82,0.00,CLR,,0.00,0.0,WeatherDisplay:10.37,2013-09-30 13:14:00,
2013-09-30 08:19:00,53.9,48.2,29.76,WNW,288,4.0,4.0,81,0.00,CLR,,0.00,25.0,WeatherDisplay:10.37,2013-09-30 13:19:00,
2013-09-30 08:24:00,52.9,47.6,29.78,SSE,157,1.1,1.1,82,0.00,CLR,,0.00,0.0,WeatherDisplay:10.37,2013-09-30 13:24:00,
2013-09-30 08:29:00,52.9,47.6,29.78,SSE,157,1.1,1.1,82,0.00,CLR,,0.00,0.0,WeatherDisplay:10.37,2013-09-30 13:29:00,
2013-09-30 08:34:00,54.7,48.3,29.76,SSE,159,1.1,1.1,79,0.00,CLR,,0.00,28.0,WeatherDisplay:10.37,2013-09-30 13:34:00,
2013-09-30 08:39:00,55.3,48.2,29.75,SW,228,3.5,3.5,77,0.00,CLR,,0.00,25.0,WeatherDisplay:10.37,2013-09-30 13:39:00,
2013-09-30 08:44:00,55.8,48.7,29.76,SSE,156,2.0,2.0,77,0.00,CLR,,0.00,26.0,WeatherDisplay:10.37,2013-09-30 13:44:00,
2013-09-30 08:49:00,56.0,48.9,29.75,SSE,152,2.3,3.2,77,0.00,CLR,,0.00,30.0,WeatherDisplay:10.37,2013-09-30 13:49:00,
2013-09-30 08:54:00,56.6,49.1,29.75,SSW,196,8.1,8.1,76,0.00,CLR,,0.00,42.0,WeatherDisplay:10.37,2013-09-30 13:54:00,
2013-09-30 08:59:00,56.9,49.4,29.75,WSW,237,3.5,3.5,76,0.00,CLR,,0.00,39.0,WeatherDisplay:10.37,2013-09-30 13:59:00,
2013-09-30 09:04:00,57.2,49.0,29.75,WNW,287,3.5,3.5,74,0.00,CLR,,0.00,113.0,WeatherDisplay:10.37,2013-09-30 14:04:00,
2013-09-30 09:09:00,57.5,48.9,29.75,NNW,329,2.3,2.3,73,0.00,CLR,,0.00,28.0,WeatherDisplay:10.37,2013-09-30 14:09:00,
2013-09-30 09:14:00,57.8,49.2,29.75,SW,222,0.0,5.5,73,0.00,CLR,,0.00,28.0,WeatherDisplay:10.37,2013-09-30 14:14:00,
2013-09-30 09:19:00,58.3,49.7,29.74,SSW,205,4.6,4.6,73,0.00,CLR,,0.00,84.0,WeatherDisplay:10.37,2013-09-30 14:19:00,
2013-09-30 09:24:00,58.6,49.2,29.74,SSW,202,14.0,14.0,71,0.00,CLR,,0.00,69.0,WeatherDisplay:10.37,2013-09-30 14:24:00,
2013-09-30 09:29:00,58.9,49.9,29.74,SE,140,5.8,5.8,72,0.00,CLR,,0.00,40.0,WeatherDisplay:10.37,2013-09-30 14:29:00,
2013-09-30 09:34:00,59.1,49.3,29.74,SW,220,9.2,9.2,70,0.00,CLR,,0.00,51.0,WeatherDisplay:10.37,2013-09-30 14:34:00,
2013-09-30 09:39:00,57.5,48.9,29.75,NNW,329,1.1,1.5,73,0.00,CLR,,0.00,28.0,WeatherDisplay:10.37,2013-09-30 14:39:00,
2013-09-30 09:45:00,57.5,48.9,29.75,NNW,329,1.1,1.5,73,0.00,CLR,,0.00,28.0,WeatherDisplay:10.37,2013-09-30 14:45:00,
2013-09-30 09:50:00,57.5,48.9,29.75,NNW,329,1.1,1.5,73,0.00,CLR,,0.00,28.0,WeatherDisplay:10.37,2013-09-30 14:50:00,
2013-09-30 09:55:00,57.5,48.9,29.75,NNW,329,1.1,1.5,73,0.00,CLR,,0.00,28.0,WeatherDisplay:10.37,2013-09-30 14:55:00,
2013-09-30 10:00:00,57.5,48.9,29.75,NNW,329,1.1,1.5,73,0.00,CLR,,0.00,28.0,WeatherDisplay:10.37,2013-09-30 15:00:00,
2013-09-30 10:05:00,60.9,50.3,29.73,WSW,237,11.0,11.0,68,0.00,CLR,,0.00,128.0,WeatherDisplay:10.37,2013-09-30 15:05:00,
2013-09-30 10:10:00,60.9,50.7,29.73,WNW,298,4.6,4.6,69,0.00,CLR,,0.00,144.0,WeatherDisplay:10.37,2013-09-30 15:10:00,
2013-09-30 10:15:00,57.5,48.9,29.75,NNW,329,1.1,1.5,73,0.00,CLR,,0.00,28.0,WeatherDisplay:10.37,2013-09-30 15:15:00,
2013-09-30 10:20:00,61.0,50.8,29.73,WSW,247,3.0,3.0,69,0.00,CLR,,0.00,158.0,WeatherDisplay:10.37,2013-09-30 15:20:00,
2013-09-30 10:25:00,61.1,50.8,29.72,SE,125,4.0,4.0,69,0.00,CLR,,0.00,162.0,WeatherDisplay:10.37,2013-09-30 15:25:00,
2013-09-30 10:30:00,57.5,48.9,29.75,NNW,329,1.1,1.5,73,0.00,CLR,,0.00,28.0,WeatherDisplay:10.37,2013-09-30 15:30:00,
2013-09-30 10:35:00,57.5,48.9,29.75,NNW,329,1.1,1.5,73,0.00,CLR,,0.00,28.0,WeatherDisplay:10.37,2013-09-30 15:35:00,
2013-09-30 10:41:00,57.5,48.9,29.75,NNW,329,1.1,1.5,73,0.00,CLR,,0.00,28.0,WeatherDisplay:10.37,2013-09-30 15:41:00,
2013-09-30 10:46:00,57.5,48.9,29.75,NNW,329,1.1,1.5,73,0.00,CLR,,0.00,28.0,WeatherDisplay:10.37,2013-09-30 15:46:00,
2013-09-30 10:51:00,57.5,48.9,29.75,NNW,329,1.1,1.5,73,0.00,CLR,,0.00,28.0,WeatherDisplay:10.37,2013-09-30 15:51:00,
2013-09-30 10:56:00,61.6,50.9,29.71,SSE,156,12.7,12.7,68,0.00,CLR,,0.00,165.0,WeatherDisplay:10.37,2013-09-30 15:56:00,
2013-09-30 11:01:00,57.5,48.9,29.75,NNW,329,1.1,1.5,73,0.00,CLR,,0.00,28.0,WeatherDisplay:10.37,2013-09-30 16:01:00,
2013-09-30 11:06:00,57.5,48.9,29.75,NNW,329,1.1,1.5,73,0.00,CLR,,0.00,28.0,WeatherDisplay:10.37,2013-09-30 16:06:00,
2013-09-30 11:11:00,62.6,51.1,29.71,South,171,3.5,3.5,66,0.00,CLR,,0.00,202.0,WeatherDisplay:10.37,2013-09-30 16:11:00,
2013-09-30 11:16:00,62.9,52.2,29.71,NNE,33,10.4,10.4,68,0.00,CLR,,0.00,199.0,WeatherDisplay:10.37,2013-09-30 16:16:00,
2013-09-30 11:21:00,62.4,51.3,29.71,South,169,3.5,3.5,67,0.00,CLR,,0.00,204.0,WeatherDisplay:10.37,2013-09-30 16:21:00,
2013-09-30 11:26:00,63.4,52.2,29.71,WSW,237,16.1,16.1,67,0.00,CLR,,0.00,452.0,WeatherDisplay:10.37,2013-09-30 16:26:00,
2013-09-30 11:31:00,63.8,51.8,29.71,SE,130,6.9,6.9,65,0.00,CLR,,0.00,387.0,WeatherDisplay:10.37,2013-09-30 16:31:00,
2013-09-30 11:36:00,62.4,51.3,29.71,South,169,3.5,3.5,67,0.00,CLR,,0.00,204.0,WeatherDisplay:10.37,2013-09-30 16:36:00,
2013-09-30 11:41:00,64.5,52.0,29.70,SSE,160,11.5,11.5,64,0.00,CLR,,0.00,517.0,WeatherDisplay:10.37,2013-09-30 16:41:00,
2013-09-30 11:46:00,64.7,52.2,29.70,West,269,10.4,10.4,64,0.00,CLR,,0.00,373.0,WeatherDisplay:10.37,2013-09-30 16:46:00,
2013-09-30 11:51:00,62.4,51.3,29.71,South,169,3.5,3.5,67,0.00,CLR,,0.00,204.0,WeatherDisplay:10.37,2013-09-30 16:51:00,
2013-09-30 11:56:00,65.2,52.3,29.69,West,279,9.2,9.2,63,0.00,CLR,,0.00,543.0,WeatherDisplay:10.37,2013-09-30 16:56:00,
2013-09-30 12:01:00,62.4,51.3,29.71,South,169,3.5,3.5,67,0.00,CLR,,0.00,204.0,WeatherDisplay:10.37,2013-09-30 17:01:00,
2013-09-30 12:06:00,62.4,51.3,29.71,South,169,3.5,3.5,67,0.00,CLR,,0.00,204.0,WeatherDisplay:10.37,2013-09-30 17:06:00,
2013-09-30 12:11:00,66.3,52.0,29.69,NNW,333,8.1,8.1,60,0.00,CLR,,0.00,708.0,WeatherDisplay:10.37,2013-09-30 17:11:00,
2013-09-30 12:16:00,62.4,51.3,29.71,South,169,3.5,3.5,67,0.00,CLR,,0.00,204.0,WeatherDisplay:10.37,2013-09-30 17:16:00,
2013-09-30 12:21:00,67.4,53.0,29.69,SSE,158,4.6,4.6,60,0.00,CLR,,0.00,432.0,WeatherDisplay:10.37,2013-09-30 17:21:00,
2013-09-30 12:26:00,62.4,51.3,29.71,South,169,3.5,3.5,67,0.00,CLR,,0.00,204.0,WeatherDisplay:10.37,2013-09-30 17:26:00,
2013-09-30 12:31:00,67.7,52.4,29.69,SW,231,11.5,11.5,58,0.00,CLR,,0.00,612.0,WeatherDisplay:10.37,2013-09-30 17:31:00,
2013-09-30 12:36:00,68.0,53.1,29.69,SSW,201,4.0,4.0,59,0.00,CLR,,0.00,575.0,WeatherDisplay:10.37,2013-09-30 17:36:00,
2013-09-30 12:41:00,62.4,51.3,29.71,South,169,3.5,3.5,67,0.00,CLR,,0.00,204.0,WeatherDisplay:10.37,2013-09-30 17:41:00,
2013-09-30 12:46:00,68.6,53.7,29.69,SE,139,5.8,5.8,59,0.00,CLR,,0.00,647.0,WeatherDisplay:10.37,2013-09-30 17:46:00,
2013-09-30 12:51:00,62.4,51.3,29.71,South,169,3.5,3.5,67,0.00,CLR,,0.00,204.0,WeatherDisplay:10.37,2013-09-30 17:51:00,
2013-09-30 12:56:00,62.4,51.3,29.71,South,169,3.5,3.5,67,0.00,CLR,,0.00,204.0,WeatherDisplay:10.37,2013-09-30 17:56:00,
2013-09-30 13:01:00,62.4,51.3,29.71,South,169,3.5,3.5,67,0.00,CLR,,0.00,204.0,WeatherDisplay:10.37,2013-09-30 18:01:00,
2013-09-30 13:06:00,68.6,52.3,29.69,WNW,286,8.1,8.1,56,0.00,CLR,,0.00,227.0,WeatherDisplay:10.37,2013-09-30 18:06:00,
2013-09-30 13:11:00,68.6,54.2,29.69,WSW,252,8.1,8.1,60,0.00,CLR,,0.00,104.0,WeatherDisplay:10.37,2013-09-30 18:11:00,
2013-09-30 13:16:00,62.4,51.3,29.71,South,169,3.5,3.5,67,0.00,CLR,,0.00,204.0,WeatherDisplay:10.37,2013-09-30 18:16:00,
2013-09-30 13:21:00,69.0,52.6,29.68,SE,128,3.5,4.0,56,0.00,CLR,,0.00,399.0,WeatherDisplay:10.37,2013-09-30 18:21:00,
2013-09-30 13:26:00,69.0,52.6,29.68,ESE,109,6.9,6.9,56,0.00,CLR,,0.00,524.0,WeatherDisplay:10.37,2013-09-30 18:26:00,
2013-09-30 13:31:00,69.4,53.0,29.68,East,101,11.5,11.5,56,0.00,CLR,,0.00,555.0,WeatherDisplay:10.37,2013-09-30 18:31:00,
2013-09-30 13:36:00,69.0,52.6,29.68,SE,128,3.5,4.0,56,0.00,CLR,,0.00,399.0,WeatherDisplay:10.37,2013-09-30 18:36:00,
2013-09-30 13:41:00,69.0,52.6,29.68,SE,128,3.5,4.0,56,0.00,CLR,,0.00,399.0,WeatherDisplay:10.37,2013-09-30 18:41:00,
2013-09-30 13:46:00,70.2,52.8,29.67,South,173,4.0,4.0,54,0.00,CLR,,0.00,638.0,WeatherDisplay:10.37,2013-09-30 18:46:00,
2013-09-30 13:51:00,70.2,52.8,29.67,WSW,240,0.0,4.2,54,0.00,CLR,,0.00,619.0,WeatherDisplay:10.37,2013-09-30 18:51:00,
2013-09-30 13:56:00,70.8,52.3,29.67,SE,138,10.4,10.4,52,0.00,CLR,,0.00,664.0,WeatherDisplay:10.37,2013-09-30 18:56:00,
2013-09-30 14:01:00,70.2,52.8,29.67,South,173,3.5,3.5,54,0.00,CLR,,0.00,638.0,WeatherDisplay:10.37,2013-09-30 19:01:00,
2013-09-30 14:06:00,71.1,53.6,29.67,East,88,9.2,9.2,54,0.00,CLR,,0.00,652.0,WeatherDisplay:10.37,2013-09-30 19:06:00,
2013-09-30 14:11:00,71.3,52.8,29.67,South,179,9.2,9.2,52,0.00,CLR,,0.00,605.0,WeatherDisplay:10.37,2013-09-30 19:11:00,
2013-09-30 14:16:00,71.3,53.3,29.67,West,266,6.9,6.9,53,0.00,CLR,,0.00,606.0,WeatherDisplay:10.37,2013-09-30 19:16:00,
2013-09-30 14:21:00,71.5,52.4,29.67,SE,140,8.1,8.1,51,0.00,CLR,,0.00,638.0,WeatherDisplay:10.37,2013-09-30 19:21:00,
2013-09-30 14:26:00,71.8,53.2,29.66,East,82,3.5,3.5,52,0.00,CLR,,0.00,610.0,WeatherDisplay:10.37,2013-09-30 19:26:00,
2013-09-30 14:31:00,72.0,53.4,29.66,SSE,151,9.2,9.2,52,0.00,CLR,,0.00,162.0,WeatherDisplay:10.37,2013-09-30 19:31:00,
2013-09-30 14:36:00,72.1,53.0,29.66,SE,131,3.0,5.1,51,0.00,CLR,,0.00,158.0,WeatherDisplay:10.37,2013-09-30 19:36:00,
2013-09-30 14:41:00,72.0,53.4,29.66,South,171,0.0,3.6,52,0.00,CLR,,0.00,86.0,WeatherDisplay:10.37,2013-09-30 19:41:00,
2013-09-30 14:46:00,72.1,53.5,29.66,East,84,9.2,9.2,52,0.00,CLR,,0.00,613.0,WeatherDisplay:10.37,2013-09-30 19:46:00,
2013-09-30 14:51:00,72.4,52.7,29.66,ENE,76,6.9,6.9,50,0.00,CLR,,0.00,612.0,WeatherDisplay:10.37,2013-09-30 19:51:00,
2013-09-30 14:56:00,72.0,53.4,29.66,South,171,0.0,3.6,52,0.00,CLR,,0.00,86.0,WeatherDisplay:10.37,2013-09-30 19:56:00,
2013-09-30 15:01:00,72.6,53.4,29.65,SE,136,10.4,10.4,51,0.00,CLR,,0.00,592.0,WeatherDisplay:10.37,2013-09-30 20:01:00,
2013-09-30 15:06:00,72.0,53.4,29.66,South,171,0.0,3.6,52,0.00,CLR,,0.00,86.0,WeatherDisplay:10.37,2013-09-30 20:06:00,
2013-09-30 15:11:00,72.8,53.1,29.65,SW,222,6.9,6.9,50,0.00,CLR,,0.00,492.0,WeatherDisplay:10.37,2013-09-30 20:11:00,
2013-09-30 15:16:00,72.8,54.1,29.65,ENE,65,3.0,3.0,52,0.00,CLR,,0.00,533.0,WeatherDisplay:10.37,2013-09-30 20:16:00,
2013-09-30 15:21:00,72.0,53.4,29.66,South,171,0.0,3.6,52,0.00,CLR,,0.00,86.0,WeatherDisplay:10.37,2013-09-30 20:21:00,
2013-09-30 15:26:00,72.0,53.4,29.66,South,171,0.0,3.6,52,0.00,CLR,,0.00,86.0,WeatherDisplay:10.37,2013-09-30 20:26:00,
2013-09-30 15:31:00,72.8,53.1,29.65,ESE,109,10.4,10.4,50,0.00,CLR,,0.00,223.0,WeatherDisplay:10.37,2013-09-30 20:31:00,
2013-09-30 15:36:00,72.4,52.7,29.65,South,190,3.0,3.0,50,0.00,CLR,,0.00,515.0,WeatherDisplay:10.37,2013-09-30 20:36:00,
2013-09-30 15:41:00,72.0,53.4,29.66,South,171,0.0,3.6,52,0.00,CLR,,0.00,86.0,WeatherDisplay:10.37,2013-09-30 20:41:00,
2013-09-30 15:46:00,72.4,52.7,29.65,ESE,109,4.6,4.6,50,0.00,CLR,,0.00,410.0,WeatherDisplay:10.37,2013-09-30 20:46:00,
2013-09-30 15:51:00,72.2,52.5,29.65,WSW,250,10.4,10.4,50,0.00,CLR,,0.00,450.0,WeatherDisplay:10.37,2013-09-30 20:51:00,
2013-09-30 15:56:00,72.2,52.0,29.66,SE,138,6.9,6.9,49,0.00,CLR,,0.00,308.0,WeatherDisplay:10.37,2013-09-30 20:56:00,
2013-09-30 16:02:00,72.1,51.9,29.65,SW,232,3.5,3.5,49,0.00,CLR,,0.00,287.0,WeatherDisplay:10.37,2013-09-30 21:02:00,
2013-09-30 16:06:00,72.4,52.7,29.65,South,183,3.5,0.0,50,0.00,CLR,,0.00,410.0,WeatherDisplay:10.37,2013-09-30 21:06:00,
2013-09-30 16:12:00,71.2,53.2,29.66,ESE,121,8.1,8.1,53,0.00,CLR,,0.00,223.0,WeatherDisplay:10.37,2013-09-30 21:12:00,
2013-09-30 16:17:00,72.4,52.7,29.65,South,183,3.5,0.0,50,0.00,CLR,,0.00,410.0,WeatherDisplay:10.37,2013-09-30 21:17:00,
2013-09-30 16:22:00,72.4,52.7,29.65,South,183,3.5,0.0,50,0.00,CLR,,0.00,410.0,WeatherDisplay:10.37,2013-09-30 21:22:00,
2013-09-30 16:27:00,70.8,52.3,29.66,SSE,167,3.5,3.5,52,0.00,CLR,,0.00,394.0,WeatherDisplay:10.37,2013-09-30 21:27:00,
2013-09-30 16:32:00,72.4,52.7,29.65,South,183,3.5,0.0,50,0.00,CLR,,0.00,410.0,WeatherDisplay:10.37,2013-09-30 21:32:00,
2013-09-30 16:37:00,71.0,52.0,29.66,SW,217,0.0,2.6,51,0.00,CLR,,0.00,408.0,WeatherDisplay:10.37,2013-09-30 21:37:00,
2013-09-30 16:42:00,71.0,52.0,29.66,SW,217,0.0,2.6,51,0.00,CLR,,0.00,408.0,WeatherDisplay:10.37,2013-09-30 21:42:00,
2013-09-30 16:47:00,71.6,53.0,29.66,South,188,0.0,0.0,52,0.00,CLR,,0.00,327.0,WeatherDisplay:10.37,2013-09-30 21:47:00,
2013-09-30 16:52:00,71.6,53.0,29.66,South,188,1.1,0.0,52,0.00,CLR,,0.00,327.0,WeatherDisplay:10.37,2013-09-30 21:52:00,
2013-09-30 16:57:00,71.5,51.9,29.66,West,263,3.5,3.5,50,0.00,CLR,,0.00,288.0,WeatherDisplay:10.37,2013-09-30 21:57:00,
2013-09-30 17:02:00,71.4,51.8,29.66,WSW,254,3.5,3.5,50,0.00,CLR,,0.00,272.0,WeatherDisplay:10.37,2013-09-30 22:02:00,
2013-09-30 17:07:00,71.6,53.0,29.66,South,188,1.1,0.0,52,0.00,CLR,,0.00,327.0,WeatherDisplay:10.37,2013-09-30 22:07:00,
2013-09-30 17:12:00,71.0,51.4,29.66,SW,221,11.5,11.5,50,0.00,CLR,,0.00,162.0,WeatherDisplay:10.37,2013-09-30 22:12:00,
2013-09-30 17:17:00,71.6,53.0,29.66,South,188,1.1,0.0,52,0.00,CLR,,0.00,327.0,WeatherDisplay:10.37,2013-09-30 22:17:00,
2013-09-30 17:22:00,71.6,53.0,29.66,South,188,1.1,0.0,52,0.00,CLR,,0.00,327.0,WeatherDisplay:10.37,2013-09-30 22:22:00,
2013-09-30 17:27:00,70.3,51.8,29.66,SE,143,3.5,3.5,52,0.00,CLR,,0.00,54.0,WeatherDisplay:10.37,2013-09-30 22:27:00,
2013-09-30 17:32:00,70.3,51.8,29.66,SE,143,3.5,3.5,52,0.00,CLR,,0.00,54.0,WeatherDisplay:10.37,2013-09-30 22:32:00,
2013-09-30 17:37:00,69.3,51.4,29.67,SE,136,3.5,3.5,53,0.00,CLR,,0.00,25.0,WeatherDisplay:10.37,2013-09-30 22:37:00,
2013-09-30 17:42:00,71.6,53.0,29.66,South,188,1.1,0.0,52,0.00,CLR,,0.00,327.0,WeatherDisplay:10.37,2013-09-30 22:42:00,
2013-09-30 17:47:00,68.8,52.0,29.67,SE,139,3.5,3.5,55,0.00,CLR,,0.00,21.0,WeatherDisplay:10.37,2013-09-30 22:47:00,
2013-09-30 17:52:00,68.5,52.7,29.67,NW,319,2.3,2.3,57,0.00,CLR,,0.00,19.0,WeatherDisplay:10.37,2013-09-30 22:52:00,
2013-09-30 17:57:00,71.6,53.0,29.66,South,188,1.1,0.0,52,0.00,CLR,,0.00,327.0,WeatherDisplay:10.37,2013-09-30 22:57:00,
2013-09-30 18:02:00,68.0,51.2,29.67,WSW,237,2.3,0.0,55,0.00,CLR,,0.00,16.0,WeatherDisplay:10.37,2013-09-30 23:02:00,
2013-09-30 18:07:00,67.8,51.0,29.67,SSE,157,0.0,0.0,55,0.00,CLR,,0.00,14.0,WeatherDisplay:10.37,2013-09-30 23:07:00,
2013-09-30 18:12:00,67.7,50.5,29.67,SSW,195,3.5,3.5,54,0.00,CLR,,0.00,12.0,WeatherDisplay:10.37,2013-09-30 23:12:00,
2013-09-30 18:17:00,67.5,52.7,29.67,SE,146,2.0,2.0,59,0.00,CLR,,0.00,11.0,WeatherDisplay:10.37,2013-09-30 23:17:00,
2013-09-30 18:22:00,71.6,53.0,29.66,South,188,1.1,0.0,52,0.00,CLR,,0.00,327.0,WeatherDisplay:10.37,2013-09-30 23:22:00,
2013-09-30 18:27:00,66.8,52.5,29.67,SSE,152,1.1,0.0,60,0.00,CLR,,0.00,7.0,WeatherDisplay:10.37,2013-09-30 23:27:00,
2013-09-30 18:32:00,66.5,51.3,29.67,WNW,282,3.5,3.5,58,0.00,CLR,,0.00,5.0,WeatherDisplay:10.37,2013-09-30 23:32:00,
2013-09-30 18:37:00,66.0,51.3,29.68,SSE,157,1.1,1.1,59,0.00,CLR,,0.00,0.0,WeatherDisplay:10.37,2013-09-30 23:37:00,
2013-09-30 18:42:00,71.6,53.0,29.66,South,188,1.1,0.0,52,0.00,CLR,,0.00,327.0,WeatherDisplay:10.37,2013-09-30 23:42:00,
2013-09-30 18:47:00,65.0,52.1,29.68,SSE,167,2.3,2.3,63,0.00,CLR,,0.00,0.0,WeatherDisplay:10.37,2013-09-30 23:47:00,
2013-09-30 18:52:00,64.5,52.0,29.68,SSE,167,0.0,0.0,64,0.00,CLR,,0.00,0.0,WeatherDisplay:10.37,2013-09-30 23:52:00,
2013-09-30 18:57:00,64.4,52.0,29.68,SSE,167,0.0,0.0,64,0.00,CLR,,0.00,0.0,WeatherDisplay:10.37,2013-09-30 23:57:00,
2013-09-30 19:02:00,64.4,52.0,29.68,SSE,167,0.0,0.0,64,0.00,CLR,,0.00,0.0,WeatherDisplay:10.37,2013-10-01 00:02:00,
2013-09-30 19:07:00,63.5,51.9,29.68,SSE,163,0.0,0.0,66,0.00,CLR,,0.00,0.0,WeatherDisplay:10.37,2013-10-01 00:07:00,
2013-09-30 19:12:00,63.5,51.9,29.68,SSE,163,0.0,0.0,66,0.00,CLR,,0.00,0.0,WeatherDisplay:10.37,2013-10-01 00:12:00,
2013-09-30 19:17:00,62.2,51.9,29.68,SSE,163,0.0,0.0,69,0.00,CLR,,0.00,0.0,WeatherDisplay:10.37,2013-10-01 00:17:00,
2013-09-30 19:22:00,63.5,51.9,29.68,SSE,163,0.0,0.0,66,0.00,CLR,,0.00,0.0,WeatherDisplay:10.37,2013-10-01 00:22:00,
2013-09-30 19:27:00,61.4,51.5,29.68,SSE,163,0.0,0.0,70,0.00,CLR,,0.00,0.0,WeatherDisplay:10.37,2013-10-01 00:27:00,
2013-09-30 19:32:00,61.0,51.9,29.68,SSE,163,0.0,0.0,72,0.00,CLR,,0.00,0.0,WeatherDisplay:10.37,2013-10-01 00:32:00,
2013-09-30 19:37:00,60.6,51.5,29.69,SSE,163,0.0,0.0,72,0.00,CLR,,0.00,0.0,WeatherDisplay:10.37,2013-10-01 00:37:00,
2013-09-30 19:43:00,60.2,51.9,29.69,SSE,163,0.0,0.0,74,0.00,CLR,,0.00,0.0,WeatherDisplay:10.37,2013-10-01 00:43:00,
2013-09-30 19:48:00,61.0,51.9,29.69,SSE,163,0.0,0.0,72,0.00,CLR,,0.00,0.0,WeatherDisplay:10.37,2013-10-01 00:48:00,
2013-09-30 19:53:00,60.1,51.8,29.69,SSE,163,0.0,0.0,74,0.00,CLR,,0.00,0.0,WeatherDisplay:10.37,2013-10-01 00:53:00,
2013-09-30 19:58:00,59.6,51.7,29.69,SSE,163,0.0,0.0,75,0.00,CLR,,0.00,0.0,WeatherDisplay:10.37,2013-10-01 00:58:00,
2013-09-30 20:03:00,59.6,51.7,29.69,SSE,163,0.0,0.0,75,0.00,CLR,,0.00,0.0,WeatherDisplay:10.37,2013-10-01 01:03:00,
2013-09-30 20:08:00,59.6,51.7,29.69,SSE,163,0.0,0.0,75,0.00,CLR,,0.00,0.0,WeatherDisplay:10.37,2013-10-01 01:08:00,
2013-09-30 20:13:00,59.6,51.7,29.69,SSE,163,0.0,0.0,75,0.00,CLR,,0.00,0.0,WeatherDisplay:10.37,2013-10-01 01:13:00,
2013-09-30 20:18:00,58.1,51.6,29.70,South,173,1.1,1.1,79,0.00,CLR,,0.00,0.0,WeatherDisplay:10.37,2013-10-01 01:18:00,
2013-09-30 20:23:00,58.0,50.8,29.70,SSE,151,1.1,1.1,77,0.00,CLR,,0.00,0.0,WeatherDisplay:10.37,2013-10-01 01:23:00,
2013-09-30 20:28:00,58.0,50.8,29.70,SSE,151,0.0,0.1,77,0.00,CLR,,0.00,0.0,WeatherDisplay:10.37,2013-10-01 01:28:00,
2013-09-30 20:33:00,58.0,50.8,29.70,SSE,151,0.0,0.1,77,0.00,CLR,,0.00,0.0,WeatherDisplay:10.37,2013-10-01 01:33:00,
2013-09-30 20:38:00,58.0,50.8,29.70,SSE,151,0.0,0.1,77,0.00,CLR,,0.00,0.0,WeatherDisplay:10.37,2013-10-01 01:38:00,
2013-09-30 20:43:00,58.3,51.1,29.70,SSE,158,2.3,2.3,77,0.00,CLR,,0.00,0.0,WeatherDisplay:10.37,2013-10-01 01:43:00,
2013-09-30 20:48:00,58.3,51.1,29.70,SSE,158,0.0,0.1,77,0.00,CLR,,0.00,0.0,WeatherDisplay:10.37,2013-10-01 01:48:00,
2013-09-30 20:53:00,58.3,50.8,29.70,SE,142,3.0,3.0,76,0.00,CLR,,0.00,0.0,WeatherDisplay:10.37,2013-10-01 01:53:00,
2013-09-30 20:58:00,58.3,50.8,29.70,SSE,158,1.1,0.0,76,0.00,CLR,,0.00,0.0,WeatherDisplay:10.37,2013-10-01 01:58:00,
2013-09-30 21:03:00,58.7,50.4,29.70,SSE,164,3.5,3.5,74,0.00,CLR,,0.00,0.0,WeatherDisplay:10.37,2013-10-01 02:03:00,
2013-09-30 21:08:00,58.3,50.8,29.70,SSE,158,1.1,0.0,76,0.00,CLR,,0.00,0.0,WeatherDisplay:10.37,2013-10-01 02:08:00,
2013-09-30 21:13:00,58.3,50.8,29.70,SSE,158,1.1,0.0,76,0.00,CLR,,0.00,0.0,WeatherDisplay:10.37,2013-10-01 02:13:00,
2013-09-30 21:18:00,59.0,50.7,29.69,South,185,3.5,3.5,74,0.00,CLR,,0.00,0.0,WeatherDisplay:10.37,2013-10-01 02:18:00,
2013-09-30 21:23:00,59.0,50.7,29.69,South,184,0.0,0.4,74,0.00,CLR,,0.00,0.0,WeatherDisplay:10.37,2013-10-01 02:23:00,
2013-09-30 21:29:00,58.9,50.6,29.69,SSE,167,1.1,1.1,74,0.00,CLR,,0.00,0.0,WeatherDisplay:10.37,2013-10-01 02:29:00,
2013-09-30 21:34:00,58.9,50.6,29.69,SE,136,3.5,3.5,74,0.00,CLR,,0.00,0.0,WeatherDisplay:10.37,2013-10-01 02:34:00,
2013-09-30 21:39:00,59.0,50.4,29.69,WNW,288,3.5,3.5,73,0.00,CLR,,0.00,0.0,WeatherDisplay:10.37,2013-10-01 02:39:00,
2013-09-30 21:44:00,59.2,50.5,29.69,SE,146,0.0,0.6,73,0.00,CLR,,0.00,0.0,WeatherDisplay:10.37,2013-10-01 02:44:00,
2013-09-30 21:49:00,59.4,50.7,29.69,South,174,0.0,0.0,73,0.00,CLR,,0.00,0.0,WeatherDisplay:10.37,2013-10-01 02:49:00,
2013-09-30 21:54:00,59.5,50.8,29.69,South,178,1.1,1.1,73,0.00,CLR,,0.00,0.0,WeatherDisplay:10.37,2013-10-01 02:54:00,
2013-09-30 21:59:00,58.8,50.5,29.69,SSE,167,0.0,1.0,74,0.00,CLR,,0.00,0.0,WeatherDisplay:10.37,2013-10-01 02:59:00,
2013-09-30 22:04:00,58.8,50.5,29.69,SSE,167,0.0,1.0,74,0.00,CLR,,0.00,0.0,WeatherDisplay:10.37,2013-10-01 03:04:00,
2013-09-30 22:09:00,58.8,50.5,29.69,SSE,167,0.0,1.0,74,0.00,CLR,,0.00,0.0,WeatherDisplay:10.37,2013-10-01 03:09:00,
2013-09-30 22:14:00,58.8,50.5,29.69,SSE,167,0.0,1.0,74,0.00,CLR,,0.00,0.0,WeatherDisplay:10.37,2013-10-01 03:14:00,
2013-09-30 22:19:00,58.8,50.5,29.69,SSE,167,0.0,1.0,74,0.00,CLR,,0.00,0.0,WeatherDisplay:10.37,2013-10-01 03:19:00,
2013-09-30 22:24:00,60.2,50.8,29.69,SSE,157,1.1,1.1,71,0.00,CLR,,0.00,0.0,WeatherDisplay:10.37,2013-10-01 03:24:00,
2013-09-30 22:29:00,60.3,50.5,29.69,SSE,158,2.3,2.3,70,0.00,CLR,,0.00,0.0,WeatherDisplay:10.37,2013-10-01 03:29:00,
2013-09-30 22:34:00,58.8,50.5,29.69,SSE,167,0.0,1.0,74,0.00,CLR,,0.00,0.0,WeatherDisplay:10.37,2013-10-01 03:34:00,
2013-09-30 22:39:00,58.8,50.5,29.69,SSE,167,0.0,1.0,74,0.00,CLR,,0.00,0.0,WeatherDisplay:10.37,2013-10-01 03:39:00,
2013-09-30 22:44:00,58.8,50.5,29.69,SSE,167,0.0,1.0,74,0.00,CLR,,0.00,0.0,WeatherDisplay:10.37,2013-10-01 03:44:00,
2013-09-30 22:49:00,60.4,50.2,29.69,SSE,157,3.5,3.5,69,0.00,CLR,,0.00,0.0,WeatherDisplay:10.37,2013-10-01 03:49:00,
2013-09-30 22:54:00,58.8,50.5,29.69,SSE,167,0.0,1.0,74,0.00,CLR,,0.00,0.0,WeatherDisplay:10.37,2013-10-01 03:54:00,
2013-09-30 22:59:00,58.8,50.5,29.69,SSE,167,0.0,1.0,74,0.00,CLR,,0.00,0.0,WeatherDisplay:10.37,2013-10-01 03:59:00,
2013-09-30 23:01:00,58.8,50.5,29.69,SSE,167,0.0,1.0,74,0.00,CLR,,0.00,0.0,WeatherDisplay:10.37,2013-10-01 04:01:00,
2013-09-30 23:06:00,58.8,50.5,29.69,SSE,167,0.0,1.0,74,0.00,CLR,,0.00,0.0,WeatherDisplay:10.37,2013-10-01 04:06:00,
2013-09-30 23:11:00,58.8,50.5,29.69,SSE,167,0.0,1.0,74,0.00,CLR,,0.00,0.0,WeatherDisplay:10.37,2013-10-01 04:11:00,
2013-09-30 23:16:00,58.8,50.5,29.69,SSE,167,0.0,1.0,74,0.00,CLR,,0.00,0.0,WeatherDisplay:10.37,2013-10-01 04:16:00,
2013-09-30 23:21:00,60.8,50.6,29.67,West,271,5.0,5.0,69,0.00,CLR,,0.00,0.0,WeatherDisplay:10.37,2013-10-01 04:21:00,
2013-09-30 23:26:00,58.8,50.5,29.69,SSE,167,0.0,1.0,74,0.00,CLR,,0.00,0.0,WeatherDisplay:10.37,2013-10-01 04:26:00,
2013-09-30 23:31:00,60.9,50.7,29.67,South,181,6.9,6.9,69,0.00,CLR,,0.00,0.0,WeatherDisplay:10.37,2013-10-01 04:31:00,
2013-09-30 23:36:00,60.9,50.3,29.67,SE,135,6.9,6.9,68,0.00,CLR,,0.00,0.0,WeatherDisplay:10.37,2013-10-01 04:36:00,
2013-09-30 23:41:00,58.8,50.5,29.69,SSE,167,0.0,1.0,74,0.00,CLR,,0.00,0.0,WeatherDisplay:10.37,2013-10-01 04:41:00,
2013-09-30 23:46:00,58.8,50.5,29.69,SSE,167,0.0,1.0,74,0.00,CLR,,0.00,0.0,WeatherDisplay:10.37,2013-10-01 04:46:00,
2013-09-30 23:52:00,61.0,50.8,29.67,South,184,0.0,0.0,69,0.00,CLR,,0.00,0.0,WeatherDisplay:10.37,2013-10-01 04:52:00,
2013-09-30 23:57:00,61.0,50.8,29.67,SSE,167,5.8,5.8,69,0.00,CLR,,0.00,0.0,WeatherDisplay:10.37,2013-10-01 04:57:00,